Time;durP1;ratioP1;P1;durP2;ratioP2;P2;SDS_P1;SDS_P2;PMS_P1;PMS_P2;Temp;Humidity;BMP_temperature;BMP_pressure;BME280_temperature;BME280_humidity;BME280_pressure;Samples;Min_cycle;Max_cycle;Signal;HPM_P1;HPM_P2
2022/12/07 00:01:35;;;;;;;0.20;0.10;;;;;;;;;;5036112;28;20059;-84
2022/12/07 00:04:05;;;;;;;0.20;0.10;;;;;;;;;;5015916;28;20070;-86
2022/12/07 00:06:36;;;;;;;0.20;0.10;;;;;;;;;;5004350;28;20488;-87
2022/12/07 00:09:03;;;;;;;0.20;0.10;;;;;;;;;;5019884;28;20159;-87
2022/12/07 00:11:29;;;;;;;0.20;0.10;;;;;;;;;;5013347;28;20045;-86
2022/12/07 00:13:56;;;;;;;0.20;0.10;;;;;;;;;;5035408;28;20037;-85
2022/12/07 00:16:23;;;;;;;0.20;0.10;;;;;;;;;;5021030;28;20072;-85
2022/12/07 00:18:49;;;;;;;0.20;0.13;;;;;;;;;;5022046;28;20045;-87
2022/12/07 00:21:17;;;;;;;0.20;0.10;;;;;;;;;;5018134;28;20125;-82
2022/12/07 00:23:44;;;;;;;0.20;0.10;;;;;;;;;;5011013;28;20088;-84
2022/12/07 00:26:11;;;;;;;0.20;0.10;;;;;;;;;;5019031;28;20128;-84
2022/12/07 00:28:37;;;;;;;0.20;0.10;;;;;;;;;;5020338;28;20057;-83
2022/12/07 00:31:04;;;;;;;0.20;0.10;;;;;;;;;;5014466;28;20734;-83
2022/12/07 00:33:30;;;;;;;0.20;0.10;;;;;;;;;;5004591;28;20045;-85
2022/12/07 00:35:57;;;;;;;0.20;0.10;;;;;;;;;;5015774;28;20148;-86
2022/12/07 00:38:23;;;;;;;0.20;0.10;;;;;;;;;;5017311;28;20044;-85
2022/12/07 00:41:04;;;;;;;0.20;0.10;;;;;;;;;;5016327;28;20037;-85
2022/12/07 00:43:30;;;;;;;0.20;0.10;;;;;;;;;;5014749;28;20500;-84
2022/12/07 00:45:56;;;;;;;0.20;0.10;;;;;;;;;;5014767;28;20121;-85
2022/12/07 00:48:22;;;;;;;0.20;0.10;;;;;;;;;;5016908;28;20040;-84
2022/12/07 00:50:48;;;;;;;0.20;0.10;;;;;;;;;;5013707;28;20083;-85
2022/12/07 00:53:15;;;;;;;0.20;0.10;;;;;;;;;;5011667;28;20037;-85
2022/12/07 00:55:41;;;;;;;0.20;0.10;;;;;;;;;;5013197;28;20065;-85
2022/12/07 00:58:07;;;;;;;0.20;0.10;;;;;;;;;;4998598;28;20112;-85
2022/12/07 01:00:35;;;;;;;0.20;0.10;;;;;;;;;;4998995;28;20073;-84
2022/12/07 01:03:01;;;;;;;0.20;0.10;;;;;;;;;;5021112;28;20040;-85
2022/12/07 01:05:27;;;;;;;0.20;0.10;;;;;;;;;;5001312;28;20095;-85
2022/12/07 01:07:53;;;;;;;0.20;0.10;;;;;;;;;;5027363;28;20080;-89
2022/12/07 01:10:19;;;;;;;0.20;0.10;;;;;;;;;;5023218;28;20040;-83
2022/12/07 01:12:45;;;;;;;0.20;0.10;;;;;;;;;;5014827;28;20033;-86
2022/12/07 01:15:11;;;;;;;0.20;0.10;;;;;;;;;;5019391;28;20038;-86
2022/12/07 01:17:37;;;;;;;0.20;0.10;;;;;;;;;;5028568;28;20049;-85
2022/12/07 01:20:04;;;;;;;0.20;0.10;;;;;;;;;;5013014;28;20049;-82
2022/12/07 01:22:30;;;;;;;0.20;0.10;;;;;;;;;;5003943;28;20467;-85
2022/12/07 01:24:56;;;;;;;0.20;0.10;;;;;;;;;;5005587;28;20048;-86
2022/12/07 01:27:22;;;;;;;0.20;0.10;;;;;;;;;;5015642;28;20041;-85
2022/12/07 01:29:48;;;;;;;0.20;0.10;;;;;;;;;;5029041;28;20037;-85
2022/12/07 01:32:14;;;;;;;0.20;0.10;;;;;;;;;;5013704;28;20041;-84
2022/12/07 01:34:40;;;;;;;0.20;0.10;;;;;;;;;;5010217;28;20046;-84
2022/12/07 01:37:06;;;;;;;0.20;0.10;;;;;;;;;;5031216;28;20042;-86
2022/12/07 01:39:32;;;;;;;0.20;0.10;;;;;;;;;;5016760;28;20037;-84
2022/12/07 01:41:58;;;;;;;0.20;0.10;;;;;;;;;;5032221;28;20116;-83
2022/12/07 01:44:24;;;;;;;0.20;0.10;;;;;;;;;;5013719;28;20183;-82
2022/12/07 01:46:51;;;;;;;0.20;0.10;;;;;;;;;;5031574;28;20117;-84
2022/12/07 01:49:28;;;;;;;0.20;0.10;;;;;;;;;;5029664;28;20045;-82
2022/12/07 01:52:01;;;;;;;0.20;0.10;;;;;;;;;;5016545;28;20037;-83
2022/12/07 01:54:27;;;;;;;0.20;0.10;;;;;;;;;;5019530;28;20040;-83
2022/12/07 01:56:55;;;;;;;0.20;0.10;;;;;;;;;;5001641;28;20044;-83
2022/12/07 01:59:24;;;;;;;0.20;0.10;;;;;;;;;;5011769;28;20049;-83
2022/12/07 02:01:50;;;;;;;0.20;0.10;;;;;;;;;;5012774;28;20045;-82
2022/12/07 02:04:17;;;;;;;0.20;0.10;;;;;;;;;;5010524;28;20041;-83
2022/12/07 02:06:43;;;;;;;0.20;0.10;;;;;;;;;;5007228;28;20053;-85
2022/12/07 02:09:09;;;;;;;0.20;0.10;;;;;;;;;;4999379;28;20400;-83
2022/12/07 02:11:35;;;;;;;0.20;0.10;;;;;;;;;;5015984;28;20063;-82
2022/12/07 02:14:02;;;;;;;0.20;0.10;;;;;;;;;;5000703;28;20169;-83
2022/12/07 02:16:32;;;;;;;0.20;0.10;;;;;;;;;;5029457;28;20041;-83
2022/12/07 02:19:10;;;;;;;0.20;0.10;;;;;;;;;;5016945;28;20046;-79
2022/12/07 02:21:46;;;;;;;0.20;0.10;;;;;;;;;;4998179;28;20049;-83
2022/12/07 02:24:12;;;;;;;0.20;0.10;;;;;;;;;;5020296;28;20255;-84
2022/12/07 02:26:50;;;;;;;0.20;0.10;;;;;;;;;;5010878;28;20165;-84
2022/12/07 02:29:25;;;;;;;0.20;0.10;;;;;;;;;;5013469;28;20052;-82
2022/12/07 02:31:55;;;;;;;0.20;0.10;;;;;;;;;;5012406;28;20120;-84
2022/12/07 02:34:21;;;;;;;0.20;0.10;;;;;;;;;;5002151;28;20037;-84
2022/12/07 02:36:53;;;;;;;0.20;0.10;;;;;;;;;;5015486;28;20496;-82
2022/12/07 02:39:25;;;;;;;0.20;0.10;;;;;;;;;;5005361;28;20128;-83
2022/12/07 02:41:53;;;;;;;0.20;0.10;;;;;;;;;;5001674;28;20049;-82
2022/12/07 02:44:21;;;;;;;0.20;0.10;;;;;;;;;;5036201;28;20034;-84
2022/12/07 02:46:50;;;;;;;0.20;0.10;;;;;;;;;;5013701;28;20132;-84
2022/12/07 02:49:35;;;;;;;0.20;0.10;;;;;;;;;;5018906;28;20038;-85
2022/12/07 02:52:01;;;;;;;0.20;0.10;;;;;;;;;;5017718;28;20033;-83
2022/12/07 02:54:27;;;;;;;0.20;0.10;;;;;;;;;;5006655;28;20041;-85
2022/12/07 02:57:05;;;;;;;0.20;0.10;;;;;;;;;;5015794;28;20107;-84
2022/12/07 02:59:41;;;;;;;0.20;0.10;;;;;;;;;;5004399;28;20056;-83
2022/12/07 03:02:10;;;;;;;0.20;0.10;;;;;;;;;;5038892;28;20033;-84
2022/12/07 03:04:39;;;;;;;0.20;0.10;;;;;;;;;;5019756;28;20033;-85
2022/12/07 03:07:11;;;;;;;0.20;0.10;;;;;;;;;;5017953;28;20092;-83
2022/12/07 03:10:00;;;;;;;0.20;0.10;;;;;;;;;;5016114;28;20057;-82
2022/12/07 03:12:30;;;;;;;0.20;0.10;;;;;;;;;;5011507;28;20049;-83
2022/12/07 03:15:00;;;;;;;0.20;0.10;;;;;;;;;;5017479;28;20103;-84
2022/12/07 03:17:29;;;;;;;0.20;0.10;;;;;;;;;;5000791;28;20577;-85
2022/12/07 03:19:57;;;;;;;0.20;0.10;;;;;;;;;;5005021;28;20049;-81
2022/12/07 03:22:24;;;;;;;0.20;0.10;;;;;;;;;;5023090;28;20091;-83
2022/12/07 03:24:52;;;;;;;0.20;0.10;;;;;;;;;;5019496;28;20041;-83
2022/12/07 03:27:38;;;;;;;0.20;0.10;;;;;;;;;;5015111;28;20111;-83
2022/12/07 03:30:09;;;;;;;0.20;0.10;;;;;;;;;;5001524;28;20495;-85
2022/12/07 03:32:42;;;;;;;0.20;0.10;;;;;;;;;;5018513;28;20041;-82
2022/12/07 03:35:12;;;;;;;0.20;0.10;;;;;;;;;;5017397;28;20033;-84
2022/12/07 03:37:48;;;;;;;0.20;0.10;;;;;;;;;;5016855;28;20080;-83
2022/12/07 03:40:22;;;;;;;0.20;0.10;;;;;;;;;;5024843;28;20503;-83
2022/12/07 03:42:48;;;;;;;0.20;0.10;;;;;;;;;;5024211;28;20037;-88
2022/12/07 03:45:15;;;;;;;0.20;0.10;;;;;;;;;;5019499;28;20045;-87
2022/12/07 03:47:46;;;;;;;1.00;1.00;;;;;;;;;;5013798;28;20149;-87
2022/12/07 03:50:39;;;;;;;0.20;0.10;;;;;;;;;;5006452;28;20038;-86
2022/12/07 03:53:40;;;;;;;0.20;0.10;;;;;;;;;;5030986;28;20045;-85
2022/12/07 03:56:08;;;;;;;0.20;0.10;;;;;;;;;;4988399;28;20041;-85
2022/12/07 03:58:34;;;;;;;0.20;0.10;;;;;;;;;;5015852;28;20045;-88
2022/12/07 04:01:00;;;;;;;0.20;0.10;;;;;;;;;;5017069;28;20041;-79
2022/12/07 04:03:27;;;;;;;0.20;0.10;;;;;;;;;;5001878;28;20041;-84
2022/12/07 04:05:53;;;;;;;0.20;0.10;;;;;;;;;;5006701;28;20271;-86
2022/12/07 04:08:22;;;;;;;0.20;0.10;;;;;;;;;;5012882;28;20121;-86
2022/12/07 04:10:48;;;;;;;0.20;0.10;;;;;;;;;;5013165;28;20069;-86
2022/12/07 04:13:14;;;;;;;0.20;0.10;;;;;;;;;;5013363;28;20068;-84
2022/12/07 04:15:40;;;;;;;0.20;0.10;;;;;;;;;;5000018;28;20131;-83
2022/12/07 04:18:06;;;;;;;0.20;0.10;;;;;;;;;;5017858;28;20440;-85
2022/12/07 04:20:32;;;;;;;0.20;0.10;;;;;;;;;;5001193;28;20156;-86
2022/12/07 04:22:58;;;;;;;0.20;0.10;;;;;;;;;;5019871;28;20116;-84
2022/12/07 04:25:24;;;;;;;0.20;0.10;;;;;;;;;;5034219;28;20038;-86
2022/12/07 04:27:50;;;;;;;0.20;0.10;;;;;;;;;;5019449;28;20446;-85
2022/12/07 04:30:16;;;;;;;0.20;0.10;;;;;;;;;;5021890;28;20504;-84
2022/12/07 04:32:42;;;;;;;0.20;0.10;;;;;;;;;;5016909;28;20045;-86
2022/12/07 04:35:08;;;;;;;0.20;0.10;;;;;;;;;;4998012;28;20037;-85
2022/12/07 04:37:34;;;;;;;0.20;0.10;;;;;;;;;;5018377;28;20041;-85
2022/12/07 04:40:00;;;;;;;0.20;0.10;;;;;;;;;;5020890;28;20045;-85
2022/12/07 04:42:26;;;;;;;0.20;0.10;;;;;;;;;;5015603;28;20038;-85
2022/12/07 04:44:52;;;;;;;0.20;0.10;;;;;;;;;;5003075;28;20037;-84
2022/12/07 04:47:18;;;;;;;0.20;0.10;;;;;;;;;;4999418;28;20060;-85
2022/12/07 04:49:44;;;;;;;0.20;0.10;;;;;;;;;;5033663;28;20112;-86
2022/12/07 04:52:10;;;;;;;0.20;0.10;;;;;;;;;;5018941;28;20045;-86
2022/12/07 04:54:36;;;;;;;0.20;0.10;;;;;;;;;;5017522;28;20034;-87
2022/12/07 04:57:02;;;;;;;0.20;0.10;;;;;;;;;;5015615;28;20931;-86
2022/12/07 04:59:28;;;;;;;0.20;0.10;;;;;;;;;;5003193;28;20124;-86
2022/12/07 05:01:54;;;;;;;0.20;0.10;;;;;;;;;;4996603;28;20046;-85
2022/12/07 05:04:24;;;;;;;0.20;0.10;;;;;;;;;;5014629;28;20049;-86
2022/12/07 05:06:50;;;;;;;0.20;0.10;;;;;;;;;;5013716;28;20128;-85
2022/12/07 05:09:21;;;;;;;0.20;0.10;;;;;;;;;;5002096;28;20053;-85
2022/12/07 05:11:49;;;;;;;0.20;0.10;;;;;;;;;;5017066;28;20045;-86
2022/12/07 05:14:22;;;;;;;0.20;0.10;;;;;;;;;;5018020;28;20037;-87
2022/12/07 05:16:53;;;;;;;0.20;0.10;;;;;;;;;;5000360;28;20045;-87
2022/12/07 05:19:19;;;;;;;0.20;0.10;;;;;;;;;;5031254;28;20451;-86
2022/12/07 05:21:46;;;;;;;0.20;0.10;;;;;;;;;;5013724;28;20132;-87
2022/12/07 05:24:30;;;;;;;0.20;0.10;;;;;;;;;;5001357;28;20034;-86
2022/12/07 05:26:56;;;;;;;0.20;0.10;;;;;;;;;;5017328;28;20037;-86
2022/12/07 05:29:22;;;;;;;0.20;0.10;;;;;;;;;;5015815;28;20041;-88
2022/12/07 05:31:51;;;;;;;0.20;0.10;;;;;;;;;;4999015;28;20050;-87
2022/12/07 05:34:17;;;;;;;0.20;0.10;;;;;;;;;;4999072;28;20095;-87
2022/12/07 05:36:43;;;;;;;0.20;0.10;;;;;;;;;;5009687;28;20056;-86
2022/12/07 05:39:12;;;;;;;0.20;0.10;;;;;;;;;;4994540;28;20054;-86
2022/12/07 05:44:34;;;;;;;0.20;0.10;;;;;;;;;;5015801;28;20045;-86
2022/12/07 05:47:00;;;;;;;0.20;0.10;;;;;;;;;;5008371;28;20045;-86
2022/12/07 05:49:26;;;;;;;0.20;0.10;;;;;;;;;;5000391;28;20037;-87
2022/12/07 05:51:52;;;;;;;0.20;0.10;;;;;;;;;;5014136;28;20184;-86
2022/12/07 05:54:21;;;;;;;0.20;0.10;;;;;;;;;;5018267;28;20037;-87
2022/12/07 05:56:48;;;;;;;0.20;0.10;;;;;;;;;;5014424;28;20042;-84
2022/12/07 05:59:27;;;;;;;0.20;0.10;;;;;;;;;;5019445;28;20049;-87
2022/12/07 06:02:01;;;;;;;0.20;0.10;;;;;;;;;;5019483;28;20033;-86
2022/12/07 06:04:28;;;;;;;0.20;0.10;;;;;;;;;;5017701;28;20120;-86
2022/12/07 06:06:55;;;;;;;0.20;0.10;;;;;;;;;;5013805;28;20102;-87
2022/12/07 06:09:26;;;;;;;0.20;0.10;;;;;;;;;;5015978;28;20037;-87
2022/12/07 06:14:37;;;;;;;0.20;0.10;;;;;;;;;;5010937;28;20615;-86
2022/12/07 06:17:03;;;;;;;0.20;0.10;;;;;;;;;;5010843;28;20060;-87
2022/12/07 06:19:29;;;;;;;0.20;0.10;;;;;;;;;;5017142;28;20049;-85
2022/12/07 06:22:00;;;;;;;0.20;0.10;;;;;;;;;;5010820;28;20057;-87
2022/12/07 06:24:29;;;;;;;0.20;0.10;;;;;;;;;;5022191;28;20048;-86
2022/12/07 06:26:55;;;;;;;0.20;0.10;;;;;;;;;;5030875;28;20045;-85
2022/12/07 06:29:21;;;;;;;0.20;0.10;;;;;;;;;;5017803;28;20055;-86
2022/12/07 06:31:53;;;;;;;0.20;0.10;;;;;;;;;;5019398;28;20037;-85
2022/12/07 06:34:22;;;;;;;0.20;0.10;;;;;;;;;;5011369;28;20048;-85
2022/12/07 06:36:51;;;;;;;0.20;0.10;;;;;;;;;;5003180;28;20057;-83
2022/12/07 06:39:28;;;;;;;0.20;0.10;;;;;;;;;;4997747;28;20053;-86
2022/12/07 06:41:54;;;;;;;0.20;0.10;;;;;;;;;;4998329;28;20044;-86
2022/12/07 06:44:21;;;;;;;0.20;0.10;;;;;;;;;;5016181;28;20049;-86
2022/12/07 06:46:50;;;;;;;0.20;0.10;;;;;;;;;;5030396;28;20044;-88
2022/12/07 06:49:19;;;;;;;0.20;0.10;;;;;;;;;;5021880;28;20386;-85
2022/12/07 06:51:45;;;;;;;0.20;0.10;;;;;;;;;;5028188;28;20045;-87
2022/12/07 06:54:18;;;;;;;0.20;0.10;;;;;;;;;;5017131;28;20117;-86
2022/12/07 06:56:44;;;;;;;0.20;0.10;;;;;;;;;;5019440;28;20033;-86
2022/12/07 06:59:19;;;;;;;0.20;0.10;;;;;;;;;;5015386;28;20056;-86
2022/12/07 07:01:45;;;;;;;0.20;0.10;;;;;;;;;;5017134;28;20075;-83
2022/12/07 07:04:11;;;;;;;0.20;0.10;;;;;;;;;;5005484;28;20045;-88
2022/12/07 07:06:39;;;;;;;0.20;0.10;;;;;;;;;;5016958;28;20050;-89
2022/12/07 07:09:06;;;;;;;0.20;0.10;;;;;;;;;;5016264;28;20037;-86
2022/12/07 07:11:35;;;;;;;0.20;0.10;;;;;;;;;;5003068;28;20042;-86
2022/12/07 07:14:02;;;;;;;0.20;0.10;;;;;;;;;;5017238;28;20457;-87
2022/12/07 07:16:29;;;;;;;0.20;0.10;;;;;;;;;;5014820;28;20116;-86
2022/12/07 07:18:58;;;;;;;0.20;0.10;;;;;;;;;;5015204;28;20041;-86
2022/12/07 07:21:24;;;;;;;0.20;0.10;;;;;;;;;;5006916;28;20163;-87
2022/12/07 07:23:50;;;;;;;0.20;0.10;;;;;;;;;;5013626;28;20045;-87
2022/12/07 07:26:16;;;;;;;0.20;0.10;;;;;;;;;;5019389;28;20243;-86
2022/12/07 07:28:45;;;;;;;0.20;0.10;;;;;;;;;;5022362;28;20061;-87
2022/12/07 07:31:11;;;;;;;0.20;0.10;;;;;;;;;;5034430;28;20041;-84
2022/12/07 07:33:37;;;;;;;0.20;0.10;;;;;;;;;;5006808;28;20134;-88
2022/12/07 07:36:03;;;;;;;0.20;0.10;;;;;;;;;;5017118;28;20049;-87
2022/12/07 07:38:29;;;;;;;0.20;0.10;;;;;;;;;;5019329;28;20509;-88
2022/12/07 07:40:58;;;;;;;0.20;0.10;;;;;;;;;;5032170;28;20033;-86
2022/12/07 07:43:24;;;;;;;0.20;0.10;;;;;;;;;;5014801;28;20045;-87
2022/12/07 07:45:50;;;;;;;0.20;0.10;;;;;;;;;;5023386;28;20045;-84
2022/12/07 07:48:16;;;;;;;0.20;0.10;;;;;;;;;;5023429;28;20496;-84
2022/12/07 07:50:42;;;;;;;0.20;0.10;;;;;;;;;;5014733;28;20132;-88
2022/12/07 07:53:08;;;;;;;0.20;0.10;;;;;;;;;;5010440;28;20041;-85
2022/12/07 07:55:34;;;;;;;0.20;0.10;;;;;;;;;;5031339;28;20102;-83
2022/12/07 07:58:01;;;;;;;0.20;0.10;;;;;;;;;;5036945;28;20052;-82
2022/12/07 08:00:29;;;;;;;0.20;0.10;;;;;;;;;;5036623;28;20038;-88
2022/12/07 08:02:56;;;;;;;0.20;0.10;;;;;;;;;;5033092;28;20496;-87
2022/12/07 08:05:24;;;;;;;0.20;0.10;;;;;;;;;;5013239;28;20038;-85
2022/12/07 08:07:50;;;;;;;0.20;0.10;;;;;;;;;;5026278;28;20127;-86
2022/12/07 08:10:16;;;;;;;0.20;0.10;;;;;;;;;;5016401;28;20069;-87
2022/12/07 08:16:15;;;;;;;0.20;0.10;;;;;;;;;;5027682;28;20050;-87
2022/12/07 08:18:47;;;;;;;0.20;0.10;;;;;;;;;;5003468;28;20042;-87
2022/12/07 08:21:24;;;;;;;0.20;0.10;;;;;;;;;;5010546;28;20183;-88
2022/12/07 08:23:54;;;;;;;0.20;0.10;;;;;;;;;;5032371;28;20045;-86
2022/12/07 08:26:23;;;;;;;0.20;0.10;;;;;;;;;;5030375;28;20034;-87
2022/12/07 08:28:56;;;;;;;0.20;0.10;;;;;;;;;;5026842;28;20131;-87
2022/12/07 08:31:23;;;;;;;0.20;0.10;;;;;;;;;;5042009;28;20044;-86
2022/12/07 08:33:49;;;;;;;0.20;0.10;;;;;;;;;;5031227;28;20052;-85
2022/12/07 08:36:15;;;;;;;0.20;0.10;;;;;;;;;;5034311;28;20092;-87
2022/12/07 08:38:46;;;;;;;0.20;0.10;;;;;;;;;;5024474;28;20377;-86
2022/12/07 08:41:12;;;;;;;0.20;0.10;;;;;;;;;;5019883;28;20120;-86
2022/12/07 08:43:38;;;;;;;0.20;0.10;;;;;;;;;;5017822;28;20040;-85
2022/12/07 08:46:18;;;;;;;0.20;0.10;;;;;;;;;;5022893;28;20108;-86
2022/12/07 08:48:56;;;;;;;0.20;0.10;;;;;;;;;;5001546;28;20077;-88
2022/12/07 08:51:23;;;;;;;0.20;0.10;;;;;;;;;;5019191;28;20038;-87
2022/12/07 08:53:49;;;;;;;0.20;0.10;;;;;;;;;;5018668;28;20045;-86
2022/12/07 08:56:19;;;;;;;0.20;0.10;;;;;;;;;;5001567;28;21934;-86
2022/12/07 08:58:51;;;;;;;0.20;0.10;;;;;;;;;;5026859;28;20049;-88
2022/12/07 09:01:17;;;;;;;0.20;0.10;;;;;;;;;;5002109;28;20040;-87
2022/12/07 09:03:43;;;;;;;0.20;0.10;;;;;;;;;;5017030;28;20044;-88
2022/12/07 09:06:09;;;;;;;0.20;0.10;;;;;;;;;;5021729;28;20083;-86
2022/12/07 09:08:38;;;;;;;0.20;0.10;;;;;;;;;;5037612;28;20046;-84
2022/12/07 09:11:10;;;;;;;0.75;0.75;;;;;;;;;;5006443;28;20107;-86
2022/12/07 09:13:36;;;;;;;0.20;0.10;;;;;;;;;;5035061;28;20102;-88
2022/12/07 09:16:02;;;;;;;0.20;0.10;;;;;;;;;;5023735;28;20045;-87
2022/12/07 09:18:31;;;;;;;0.20;0.10;;;;;;;;;;5021251;28;20092;-87
2022/12/07 09:20:57;;;;;;;0.20;0.10;;;;;;;;;;5008567;28;20053;-88
2022/12/07 09:23:26;;;;;;;0.20;0.10;;;;;;;;;;5009788;28;20129;-85
2022/12/07 09:25:52;;;;;;;0.20;0.10;;;;;;;;;;5008074;28;20046;-84
2022/12/07 09:28:18;;;;;;;0.20;0.10;;;;;;;;;;5033788;28;20037;-85
2022/12/07 09:30:48;;;;;;;0.20;0.10;;;;;;;;;;5009297;28;20072;-88
2022/12/07 09:33:14;;;;;;;0.20;0.10;;;;;;;;;;5028723;28;21382;-86
2022/12/07 09:35:45;;;;;;;0.20;0.10;;;;;;;;;;5031501;28;20037;-86
2022/12/07 09:38:17;;;;;;;0.20;0.10;;;;;;;;;;5026848;28;20038;-84
2022/12/07 09:40:43;;;;;;;0.20;0.10;;;;;;;;;;5032151;28;20053;-85
2022/12/07 09:43:17;;;;;;;0.20;0.10;;;;;;;;;;5035644;28;20033;-87
2022/12/07 09:45:44;;;;;;;0.20;0.10;;;;;;;;;;5029463;28;20048;-86
2022/12/07 09:48:25;;;;;;;0.20;0.10;;;;;;;;;;5001268;28;20220;-83
2022/12/07 09:50:52;;;;;;;0.20;0.10;;;;;;;;;;5005495;28;20038;-86
2022/12/07 09:53:27;;;;;;;0.20;0.10;;;;;;;;;;5022972;28;20037;-88
2022/12/07 09:55:56;;;;;;;0.20;0.10;;;;;;;;;;5017684;28;20091;-86
2022/12/07 09:58:28;;;;;;;0.20;0.10;;;;;;;;;;5021780;28;20531;-84
2022/12/07 10:01:13;;;;;;;0.20;0.10;;;;;;;;;;5003371;28;20044;-87
2022/12/07 10:03:40;;;;;;;0.20;0.10;;;;;;;;;;5004488;28;20038;-87
2022/12/07 10:06:07;;;;;;;0.20;0.10;;;;;;;;;;5022634;28;20455;-87
2022/12/07 10:08:48;;;;;;;0.20;0.10;;;;;;;;;;5116582;27;20398;-89
2022/12/07 10:11:15;;;;;;;0.20;0.10;;;;;;;;;;5104352;28;20046;-85
2022/12/07 10:13:49;;;;;;;0.20;0.10;;;;;;;;;;5088401;28;20046;-85
2022/12/07 10:16:27;;;;;;;0.20;0.10;;;;;;;;;;5083978;28;20100;-85
2022/12/07 10:18:54;;;;;;;0.20;0.10;;;;;;;;;;5096594;28;20596;-86
2022/12/07 10:21:27;;;;;;;0.20;0.10;;;;;;;;;;5085790;28;20043;-86
2022/12/07 10:24:03;;;;;;;0.20;0.10;;;;;;;;;;5102069;28;20071;-87
2022/12/07 10:26:36;;;;;;;0.20;0.10;;;;;;;;;;5114236;27;20039;-87
2022/12/07 10:29:14;;;;;;;0.20;0.10;;;;;;;;;;5091264;28;20568;-83
2022/12/07 10:31:40;;;;;;;0.20;0.10;;;;;;;;;;5103032;28;20036;-86
2022/12/07 10:34:13;;;;;;;0.20;0.10;;;;;;;;;;5086610;28;20035;-87
2022/12/07 10:36:39;;;;;;;;;;;;;;;;;;5097320;28;20044;-86
2022/12/07 10:39:16;;;;;;;0.20;0.10;;;;;;;;;;5100076;28;20339;-84
2022/12/07 10:42:01;;;;;;;0.20;0.10;;;;;;;;;;5083215;28;20082;-84
2022/12/07 10:44:32;;;;;;;0.20;0.10;;;;;;;;;;5081345;28;20044;-82
2022/12/07 10:47:09;;;;;;;0.20;0.10;;;;;;;;;;5084246;28;20056;-85
2022/12/07 10:49:41;;;;;;;0.20;0.10;;;;;;;;;;5090106;28;20047;-85
2022/12/07 10:52:30;;;;;;;0.20;0.10;;;;;;;;;;5085004;28;20148;-87
2022/12/07 10:55:16;;;;;;;0.20;0.10;;;;;;;;;;5103835;28;20048;-85
2022/12/07 10:57:45;;;;;;;0.20;0.10;;;;;;;;;;5081568;28;20044;-87
2022/12/07 11:00:15;;;;;;;0.20;0.10;;;;;;;;;;5101136;28;20040;-87
2022/12/07 11:03:04;;;;;;;0.20;0.10;;;;;;;;;;5103341;28;20092;-87
2022/12/07 11:05:42;;;;;;;0.20;0.10;;;;;;;;;;5084086;28;20051;-83
2022/12/07 11:08:12;;;;;;;0.20;0.10;;;;;;;;;;5099775;28;20071;-88
2022/12/07 11:11:02;;;;;;;0.20;0.10;;;;;;;;;;5084223;28;20052;-86
2022/12/07 11:14:04;;;;;;;0.20;0.10;;;;;;;;;;5083661;28;20040;-88
2022/12/07 11:16:37;;;;;;;0.20;0.10;;;;;;;;;;5038440;28;20037;-85
2022/12/07 11:19:07;;;;;;;0.20;0.10;;;;;;;;;;5084771;28;20105;-85
2022/12/07 11:21:51;;;;;;;0.20;0.10;;;;;;;;;;5071440;28;20027;-87
2022/12/07 11:24:18;;;;;;;0.20;0.10;;;;;;;;;;5076875;28;20041;-86
2022/12/07 11:26:50;;;;;;;0.20;0.10;;;;;;;;;;5091624;28;20054;-86
2022/12/07 11:29:16;;;;;;;0.20;0.10;;;;;;;;;;5089063;28;20040;-83
2022/12/07 11:31:51;;;;;;;0.20;0.10;;;;;;;;;;5087136;28;20043;-86
2022/12/07 11:34:17;;;;;;;0.20;0.10;;;;;;;;;;5095975;28;20034;-88
2022/12/07 11:36:43;;;;;;;0.20;0.10;;;;;;;;;;5092827;28;20036;-86
2022/12/07 11:39:33;;;;;;;0.20;0.10;;;;;;;;;;5070511;28;20051;-86
2022/12/07 11:42:15;;;;;;;0.20;0.10;;;;;;;;;;5083735;28;20044;-85
2022/12/07 11:44:51;;;;;;;0.20;0.10;;;;;;;;;;5072574;28;20068;-86
2022/12/07 11:47:23;;;;;;;0.20;0.10;;;;;;;;;;5088166;28;20044;-88
2022/12/07 11:50:01;;;;;;;0.20;0.10;;;;;;;;;;5047815;28;20499;-88
2022/12/07 11:52:46;;;;;;;0.20;0.10;;;;;;;;;;5070888;28;20048;-86
2022/12/07 11:55:38;;;;;;;0.20;0.10;;;;;;;;;;5094200;28;20271;-85
2022/12/07 11:58:19;;;;;;;0.20;0.10;;;;;;;;;;5083078;28;20050;-86
2022/12/07 12:00:45;;;;;;;0.20;0.10;;;;;;;;;;5091361;28;20100;-86
2022/12/07 12:03:18;;;;;;;0.20;0.10;;;;;;;;;;5062172;28;20069;-85
2022/12/07 12:05:44;;;;;;;0.20;0.10;;;;;;;;;;5066171;28;20387;-84
2022/12/07 12:08:24;;;;;;;0.20;0.10;;;;;;;;;;5074378;28;20047;-86
2022/12/07 12:11:01;;;;;;;0.20;0.10;;;;;;;;;;5089527;28;20031;-85
2022/12/07 12:13:45;;;;;;;0.20;0.10;;;;;;;;;;5088625;28;20099;-85
2022/12/07 12:16:20;;;;;;;0.20;0.10;;;;;;;;;;5085051;28;20036;-86
2022/12/07 12:18:51;;;;;;;0.20;0.10;;;;;;;;;;5063480;28;20102;-85
2022/12/07 12:21:18;;;;;;;0.20;0.10;;;;;;;;;;5071012;28;20044;-85
2022/12/07 12:23:44;;;;;;;0.20;0.10;;;;;;;;;;5083954;28;20498;-85
2022/12/07 12:26:20;;;;;;;0.20;0.10;;;;;;;;;;5074561;28;20065;-86
2022/12/07 12:28:59;;;;;;;0.20;0.10;;;;;;;;;;5084925;28;20048;-88
2022/12/07 12:31:28;;;;;;;0.20;0.10;;;;;;;;;;5083617;28;20068;-87
2022/12/07 12:33:54;;;;;;;0.20;0.10;;;;;;;;;;5082207;28;20516;-88
2022/12/07 12:36:44;;;;;;;0.20;0.10;;;;;;;;;;5081646;28;20036;-87
2022/12/07 12:39:18;;;;;;;0.20;0.10;;;;;;;;;;5079335;28;20097;-84
2022/12/07 12:44:17;;;;;;;0.20;0.00;;;;;;;;;;5079220;28;20067;-85
2022/12/07 12:47:02;;;;;;;0.20;0.10;;;;;;;;;;5085620;28;20051;-83
2022/12/07 12:49:28;;;;;;;0.32;0.30;;;;;;;;;;5066293;28;20120;-86
2022/12/07 12:51:57;;;;;;;0.20;0.10;;;;;;;;;;5086093;28;20452;-88
2022/12/07 12:54:27;;;;;;;0.20;0.10;;;;;;;;;;5089702;28;20031;-83
2022/12/07 12:57:01;;;;;;;0.20;0.10;;;;;;;;;;5086145;28;20608;-84
2022/12/07 12:59:27;;;;;;;0.20;0.10;;;;;;;;;;5074300;28;20120;-85
2022/12/07 13:02:02;;;;;;;0.20;0.10;;;;;;;;;;5057700;22;20070;-90
2022/12/07 13:04:49;;;;;;;0.20;0.10;;;;;;;;;;4999654;28;20046;-87
2022/12/07 13:07:38;;;;;;;0.20;0.10;;;;;;;;;;4991420;28;20058;-85
2022/12/07 13:10:22;;;;;;;0.20;0.10;;;;;;;;;;5008918;28;20042;-86
2022/12/07 13:13:06;;;;;;;0.20;0.10;;;;;;;;;;5001347;28;20045;-88
2022/12/07 13:15:54;;;;;;;;;;;;;;;;;;5014342;28;20038;-90
2022/12/07 13:18:32;;;;;;;0.20;0.10;;;;;;;;;;5008458;28;20275;-85
2022/12/07 13:21:10;;;;;;;0.20;0.10;;;;;;;;;;5007576;28;20048;-88
2022/12/07 13:23:49;;;;;;;0.20;0.10;;;;;;;;;;4986999;28;20447;-86
2022/12/07 13:26:18;;;;;;;0.20;0.10;;;;;;;;;;5008803;28;20507;-84
2022/12/07 13:29:04;;;;;;;0.20;0.10;;;;;;;;;;4995669;28;20038;-87
2022/12/07 13:31:34;;;;;;;0.20;0.10;;;;;;;;;;4991124;28;20039;-86
2022/12/07 13:34:01;;;;;;;0.20;0.10;;;;;;;;;;5009997;28;20042;-88
2022/12/07 13:36:35;;;;;;;0.20;0.10;;;;;;;;;;5009098;28;20042;-87
2022/12/07 13:39:11;;;;;;;0.20;0.10;;;;;;;;;;5007682;28;20488;-91
2022/12/07 13:42:01;;;;;;;0.20;0.10;;;;;;;;;;5020090;28;20046;-90
2022/12/07 13:44:37;;;;;;;0.20;0.10;;;;;;;;;;4990945;28;20088;-90
2022/12/07 13:50:48;;;;;;;0.20;0.10;;;;;;;;;;4949711;29;20114;-87
2022/12/07 13:53:40;;;;;;;0.20;0.10;;;;;;;;;;4966898;28;20057;-89
2022/12/07 13:56:23;;;;;;;0.20;0.10;;;;;;;;;;5006448;28;20034;-88
2022/12/07 13:58:59;;;;;;;0.20;0.10;;;;;;;;;;4991059;28;20045;-86
2022/12/07 14:01:50;;;;;;;0.20;0.10;;;;;;;;;;5011949;28;20037;-88
2022/12/07 14:05:17;;;;;;;0.20;0.10;;;;;;;;;;4928732;29;20130;-89
2022/12/07 14:07:58;;;;;;;0.20;0.10;;;;;;;;;;4928169;29;20046;-90
2022/12/07 14:10:34;;;;;;;0.20;0.10;;;;;;;;;;4978209;28;20050;-89
2022/12/07 14:13:25;;;;;;;0.20;0.10;;;;;;;;;;4994732;28;20030;-87
2022/12/07 14:15:52;;;;;;;0.20;0.10;;;;;;;;;;4989144;28;20065;-86
2022/12/07 14:18:31;;;;;;;0.20;0.10;;;;;;;;;;5006406;28;20034;-86
2022/12/07 14:21:05;;;;;;;0.20;0.10;;;;;;;;;;5009835;28;20073;-89
2022/12/07 14:23:31;;;;;;;0.20;0.10;;;;;;;;;;5013124;28;20446;-86
2022/12/07 14:26:17;;;;;;;0.20;0.10;;;;;;;;;;4997141;28;20042;-86
2022/12/07 14:28:46;;;;;;;0.20;0.10;;;;;;;;;;5013392;28;20038;-87
2022/12/07 14:31:14;;;;;;;0.20;0.10;;;;;;;;;;5012447;28;20051;-88
2022/12/07 14:33:40;;;;;;;0.20;0.10;;;;;;;;;;5014548;28;20037;-87
2022/12/07 14:36:11;;;;;;;0.20;0.10;;;;;;;;;;5030057;28;20049;-88
2022/12/07 14:38:50;;;;;;;0.20;0.10;;;;;;;;;;4994843;28;20050;-88
2022/12/07 14:41:50;;;;;;;0.20;0.10;;;;;;;;;;5005210;28;20053;-88
2022/12/07 14:44:20;;;;;;;0.20;0.10;;;;;;;;;;5008444;28;20041;-88
2022/12/07 14:46:47;;;;;;;0.20;0.10;;;;;;;;;;4987564;28;20046;-87
2022/12/07 14:49:13;;;;;;;0.20;0.10;;;;;;;;;;5014936;28;20786;-87
2022/12/07 14:51:43;;;;;;;0.20;0.10;;;;;;;;;;5008315;28;20042;-85
2022/12/07 14:54:23;;;;;;;0.20;0.10;;;;;;;;;;5011363;28;20038;-86
2022/12/07 14:56:51;;;;;;;0.20;0.10;;;;;;;;;;5014504;28;20515;-86
2022/12/07 14:59:17;;;;;;;0.20;0.10;;;;;;;;;;5011194;28;20073;-87
2022/12/07 15:01:49;;;;;;;0.20;0.10;;;;;;;;;;4990321;28;20069;-87
2022/12/07 15:04:18;;;;;;;0.20;0.10;;;;;;;;;;4990996;28;20048;-86
2022/12/07 15:06:54;;;;;;;0.20;0.10;;;;;;;;;;5009348;28;20656;-86
2022/12/07 15:09:21;;;;;;;0.20;0.10;;;;;;;;;;5020396;28;20175;-85
2022/12/07 15:11:47;;;;;;;0.20;0.10;;;;;;;;;;5011807;28;20411;-86
2022/12/07 15:14:15;;;;;;;0.20;0.10;;;;;;;;;;5011000;28;20690;-85
2022/12/07 15:16:47;;;;;;;0.20;0.10;;;;;;;;;;4990292;28;20053;-86
2022/12/07 15:19:23;;;;;;;0.20;0.10;;;;;;;;;;4987224;28;20040;-86
2022/12/07 15:21:49;;;;;;;0.20;0.10;;;;;;;;;;4991389;28;20034;-85